Time;durP1;ratioP1;P1;durP2;ratioP2;P2;SDS_P1;SDS_P2;PMS_P1;PMS_P2;Temp;Humidity;BMP_temperature;BMP_pressure;BME280_temperature;BME280_humidity;BME280_pressure;Samples;Min_cycle;Max_cycle;Signal;HPM_P1;HPM_P2
2022/06/04 00:01:59;;;;;;;;;;;11.20;99.90;;;;;;5034473;28;19921;-76
2022/06/04 00:04:25;;;;;;;;;;;11.10;99.90;;;;;;5034295;28;19921;-76
2022/06/04 00:06:50;;;;;;;;;;;11.10;99.90;;;;;;5016511;28;19929;-76
2022/06/04 00:09:16;;;;;;;;;;;11.10;99.90;;;;;;5034343;28;20016;-77
2022/06/04 00:17:11;;;;;;;;;;;11.00;99.90;;;;;;5032914;28;19921;-76
2022/06/04 00:19:37;;;;;;;;;;;11.00;99.90;;;;;;5018572;28;20365;-77
2022/06/04 00:22:03;;;;;;;;;;;11.00;99.90;;;;;;5027925;28;19978;-77
2022/06/04 00:24:28;;;;;;;;;;;11.00;99.90;;;;;;5043871;28;19921;-77
2022/06/04 00:26:54;;;;;;;;;;;11.00;99.90;;;;;;5040746;28;19928;-76
2022/06/04 00:29:19;;;;;;;;;;;10.90;99.90;;;;;;5051617;28;19972;-77
2022/06/04 00:31:45;;;;;;;;;;;10.90;99.90;;;;;;5058416;28;19940;-79
2022/06/04 00:34:10;;;;;;;;;;;10.90;99.90;;;;;;5058785;28;19960;-79
2022/06/04 00:36:37;;;;;;;;;;;10.90;99.90;;;;;;5058687;28;19905;-77
2022/06/04 00:39:03;;;;;;;;;;;10.90;99.90;;;;;;5058255;28;19932;-77
2022/06/04 00:41:35;;;;;;;;;;;10.80;99.90;;;;;;5035908;28;19921;-77
2022/06/04 00:44:23;;;;;;;;;;;10.80;99.90;;;;;;5017945;28;19924;-77
2022/06/04 00:46:55;;;;;;;;;;;10.80;99.90;;;;;;5034666;28;19925;-76
2022/06/04 00:49:20;;;;;;;;;;;10.80;99.90;;;;;;5033963;28;19921;-76
2022/06/04 00:51:46;;;;;;;;;;;10.80;99.90;;;;;;5016259;28;20281;-76
2022/06/04 00:54:12;;;;;;;;;;;10.80;99.90;;;;;;5033037;28;19928;-76
2022/06/04 00:56:37;;;;;;;;;;;10.80;99.90;;;;;;5033879;28;19921;-80
2022/06/04 00:59:03;;;;;;;;;;;10.80;99.90;;;;;;5033826;28;19921;-77
2022/06/04 01:01:29;;;;;;;;;;;10.80;99.90;;;;;;5034668;28;19921;-76
2022/06/04 01:04:47;;;;;;;;;;;10.70;99.90;;;;;;5032630;28;19921;-76
2022/06/04 01:07:01;;;;;;;;;;;10.80;99.90;;;;;;5033951;28;19928;-78
2022/06/04 01:09:26;;;;;;;;;;;10.80;99.90;;;;;;5034311;28;19921;-76
2022/06/04 01:12:10;;;;;;;;;;;10.80;99.90;;;;;;5033876;28;20297;-76
2022/06/04 01:14:55;;;;;;;;;;;10.80;99.90;;;;;;5034247;28;19921;-77
2022/06/04 01:17:23;;;;;;;;;;;10.80;99.90;;;;;;5033662;28;19921;-76
2022/06/04 01:19:58;;;;;;;;;;;10.80;99.90;;;;;;5032407;28;19944;-76
2022/06/04 01:22:38;;;;;;;;;;;10.80;99.90;;;;;;5033347;28;20416;-75
2022/06/04 01:25:04;;;;;;;;;;;10.80;99.90;;;;;;5033274;28;19995;-76
2022/06/04 01:27:56;;;;;;;;;;;10.80;99.90;;;;;;5035703;28;19921;-75
2022/06/04 01:30:26;;;;;;;;;;;10.80;99.90;;;;;;5034186;28;19987;-75
2022/06/04 01:32:55;;;;;;;;;;;10.80;99.90;;;;;;5036004;28;19921;-75
2022/06/04 01:35:23;;;;;;;;;;;10.70;99.90;;;;;;5036828;28;20388;-76
2022/06/04 01:37:49;;;;;;;;;;;10.70;99.90;;;;;;5035919;28;20436;-75
2022/06/04 01:43:00;;;;;;;;;;;10.70;99.90;;;;;;5036140;28;19928;-76
2022/06/04 01:45:26;;;;;;;;;;;10.70;99.90;;;;;;5036535;28;20349;-78
2022/06/04 01:47:51;;;;;;;;;;;10.70;99.90;;;;;;5019390;28;20381;-79
2022/06/04 01:50:18;;;;;;;;;;;10.70;99.90;;;;;;5019586;28;20352;-78
2022/06/04 01:52:44;;;;;;;;;;;10.70;99.90;;;;;;5035654;28;19928;-78
2022/06/04 01:55:21;;;;;;;;;;;10.70;99.90;;;;;;5036932;28;20280;-76
2022/06/04 01:58:00;;;;;;;;;;;10.70;99.90;;;;;;5036331;28;20381;-79
2022/06/04 02:00:30;;;;;;;;;;;10.60;99.90;;;;;;5019465;28;19928;-78
2022/06/04 02:03:06;;;;;;;;;;;10.60;99.90;;;;;;5036650;28;19928;-78
2022/06/04 02:05:37;;;;;;;;;;;10.60;99.90;;;;;;5036167;28;19921;-79
2022/06/04 02:08:03;;;;;;;;;;;10.60;99.90;;;;;;5036568;28;19932;-79
2022/06/04 02:10:30;;;;;;;;;;;10.50;99.90;;;;;;5035981;28;20257;-76
2022/06/04 02:12:57;;;;;;;;;;;10.50;99.90;;;;;;5034999;28;20471;-76
2022/06/04 02:15:25;;;;;;;;;;;10.50;99.90;;;;;;5037043;28;19979;-76
2022/06/04 02:17:53;;;;;;;;;;;10.40;99.90;;;;;;5018786;28;19956;-78
2022/06/04 02:20:19;;;;;;;;;;;10.40;99.90;;;;;;5044598;28;19921;-79
2022/06/04 02:22:44;;;;;;;;;;;10.40;99.90;;;;;;5057134;28;19989;-80
2022/06/04 02:25:10;;;;;;;;;;;10.40;99.90;;;;;;5055357;28;19921;-78
2022/06/04 02:27:36;;;;;;;;;;;10.40;99.90;;;;;;5049961;28;19921;-80
2022/06/04 02:30:02;;;;;;;;;;;10.30;99.90;;;;;;5059762;28;19948;-83
2022/06/04 02:32:38;;;;;;;;;;;10.30;99.90;;;;;;5042277;28;19921;-79
2022/06/04 02:35:07;;;;;;;;;;;10.30;99.90;;;;;;5057027;28;19971;-79
2022/06/04 02:37:42;;;;;;;;;;;10.30;99.90;;;;;;5036501;28;19932;-78
2022/06/04 02:40:09;;;;;;;;;;;10.30;99.90;;;;;;5035711;28;20250;-78
2022/06/04 02:42:40;;;;;;;;;;;10.30;99.90;;;;;;5036152;28;19932;-77
2022/06/04 02:45:10;;;;;;;;;;;10.30;99.90;;;;;;5034894;28;19944;-78
2022/06/04 02:47:38;;;;;;;;;;;10.30;99.90;;;;;;5035968;28;19921;-81
2022/06/04 02:50:09;;;;;;;;;;;10.20;99.90;;;;;;5034642;28;19921;-79
2022/06/04 02:52:35;;;;;;;;;;;10.20;99.90;;;;;;5035740;28;20019;-79
2022/06/04 02:55:04;;;;;;;;;;;10.20;99.90;;;;;;5036017;28;19976;-79
2022/06/04 02:57:30;;;;;;;;;;;10.20;99.90;;;;;;5018242;28;19979;-79
2022/06/04 02:59:56;;;;;;;;;;;10.10;99.90;;;;;;5034035;28;19968;-79
2022/06/04 03:02:21;;;;;;;;;;;10.20;99.90;;;;;;5036049;28;19975;-80
2022/06/04 03:04:49;;;;;;;;;;;10.10;99.90;;;;;;5017985;28;20284;-85
2022/06/04 03:07:15;;;;;;;;;;;10.00;99.90;;;;;;5034278;28;19928;-80
2022/06/04 03:09:40;;;;;;;;;;;10.10;99.90;;;;;;5035886;28;20257;-77
2022/06/04 03:12:06;;;;;;;;;;;10.10;99.90;;;;;;5035275;28;19921;-77
2022/06/04 03:14:32;;;;;;;;;;;10.10;99.90;;;;;;5035264;28;20375;-77
2022/06/04 03:16:57;;;;;;;;;;;10.10;99.90;;;;;;5035274;28;19928;-80
2022/06/04 03:19:23;;;;;;;;;;;10.10;99.90;;;;;;5033925;28;20018;-79
2022/06/04 03:21:49;;;;;;;;;;;10.10;99.90;;;;;;5035166;28;19921;-78
2022/06/04 03:24:14;;;;;;;;;;;10.10;99.90;;;;;;5033651;28;19928;-82
2022/06/04 03:26:40;;;;;;;;;;;10.10;99.90;;;;;;5017283;28;19928;-78
2022/06/04 03:29:06;;;;;;;;;;;10.10;99.90;;;;;;5034982;28;19964;-77
2022/06/04 03:31:31;;;;;;;;;;;10.10;99.90;;;;;;5035055;28;19975;-78
2022/06/04 03:33:57;;;;;;;;;;;10.10;99.90;;;;;;5034768;28;20360;-77
2022/06/04 03:36:25;;;;;;;;;;;10.10;99.90;;;;;;5017418;28;19975;-77
2022/06/04 03:38:50;;;;;;;;;;;10.10;99.90;;;;;;5033840;28;20278;-77
2022/06/04 03:41:16;;;;;;;;;;;10.10;99.90;;;;;;5034753;28;20009;-77
2022/06/04 03:43:42;;;;;;;;;;;10.10;99.90;;;;;;5016996;28;19979;-77
2022/06/04 03:46:07;;;;;;;;;;;10.10;99.90;;;;;;5034600;28;19976;-76
2022/06/04 03:48:34;;;;;;;;;;;10.00;99.90;;;;;;5033479;28;19921;-77
2022/06/04 03:51:00;;;;;;;;;;;10.10;99.90;;;;;;5034517;28;19980;-77
2022/06/04 03:53:26;;;;;;;;;;;10.10;99.90;;;;;;5034489;28;19928;-77
2022/06/04 03:55:51;;;;;;;;;;;10.10;99.90;;;;;;5017942;28;19920;-77
2022/06/04 03:58:17;;;;;;;;;;;10.10;99.90;;;;;;5033195;28;19921;-77
2022/06/04 04:00:45;;;;;;;;;;;10.20;99.90;;;;;;5034995;28;19925;-77
2022/06/04 04:03:11;;;;;;;;;;;10.20;99.90;;;;;;5034158;28;20373;-77
2022/06/04 04:05:38;;;;;;;;;;;10.20;99.90;;;;;;5034395;28;19975;-77
2022/06/04 04:08:05;;;;;;;;;;;10.20;99.90;;;;;;5034671;28;20344;-77
2022/06/04 04:10:30;;;;;;;;;;;10.20;99.90;;;;;;5035058;28;19964;-76
2022/06/04 04:12:56;;;;;;;;;;;10.20;99.90;;;;;;5035132;28;20373;-77
2022/06/04 04:15:22;;;;;;;;;;;10.30;99.90;;;;;;5025628;28;19921;-77
2022/06/04 04:17:48;;;;;;;;;;;10.20;99.90;;;;;;5032807;28;19921;-76
2022/06/04 04:20:14;;;;;;;;;;;10.30;99.90;;;;;;5046304;28;19972;-77
2022/06/04 04:22:40;;;;;;;;;;;10.30;99.90;;;;;;5048802;28;19967;-76
2022/06/04 04:25:06;;;;;;;;;;;10.30;99.90;;;;;;5058474;28;19905;-83
2022/06/04 04:27:31;;;;;;;;;;;10.30;99.90;;;;;;5058213;28;19905;-78
2022/06/04 04:29:57;;;;;;;;;;;10.40;99.90;;;;;;5058152;28;19928;-76
2022/06/04 04:32:23;;;;;;;;;;;10.40;99.90;;;;;;5034422;28;19925;-76
2022/06/04 04:34:48;;;;;;;;;;;10.40;99.90;;;;;;5034089;28;19971;-77
2022/06/04 04:37:14;;;;;;;;;;;10.50;99.90;;;;;;5033646;28;19922;-78
2022/06/04 04:39:39;;;;;;;;;;;10.50;99.90;;;;;;5017278;28;19921;-78
2022/06/04 04:42:05;;;;;;;;;;;10.50;99.90;;;;;;5034617;28;20338;-78
2022/06/04 04:44:31;;;;;;;;;;;10.60;99.90;;;;;;5034033;28;19944;-79
2022/06/04 04:46:56;;;;;;;;;;;10.60;99.90;;;;;;5034048;28;20262;-78
2022/06/04 04:49:22;;;;;;;;;;;10.60;99.90;;;;;;5016441;28;20062;-78
2022/06/04 04:51:47;;;;;;;;;;;10.60;99.90;;;;;;5033979;28;20288;-78
2022/06/04 04:54:13;;;;;;;;;;;10.70;99.90;;;;;;5033927;28;19928;-78
2022/06/04 04:56:39;;;;;;;;;;;10.70;99.90;;;;;;5033908;28;19925;-78
2022/06/04 04:59:05;;;;;;;;;;;10.80;99.90;;;;;;5033756;28;19921;-79
2022/06/04 05:01:31;;;;;;;;;;;10.80;99.90;;;;;;5017366;28;20265;-79
2022/06/04 05:03:56;;;;;;;;;;;10.70;99.90;;;;;;5038089;28;19925;-77
2022/06/04 05:06:22;;;;;;;;;;;10.90;99.90;;;;;;5037817;28;19929;-78
2022/06/04 05:08:48;;;;;;;;;;;10.90;99.90;;;;;;5020440;28;20250;-79
2022/06/04 05:11:15;;;;;;;;;;;10.90;99.90;;;;;;5037987;28;19968;-77
2022/06/04 05:13:40;;;;;;;;;;;10.90;99.90;;;;;;5038298;28;19975;-77
2022/06/04 05:16:06;;;;;;;;;;;11.00;99.90;;;;;;5037807;28;19925;-77
2022/06/04 05:18:32;;;;;;;;;;;11.00;99.90;;;;;;5020196;28;19931;-78
2022/06/04 05:21:11;;;;;;;;;;;11.10;99.90;;;;;;5037574;28;20395;-78
2022/06/04 05:23:37;;;;;;;;;;;11.10;99.90;;;;;;5036554;28;19944;-78
2022/06/04 05:26:02;;;;;;;;;;;11.10;99.90;;;;;;5037740;28;20292;-78
2022/06/04 05:28:28;;;;;;;;;;;11.20;99.90;;;;;;5037700;28;19968;-78
2022/06/04 05:30:53;;;;;;;;;;;11.20;99.90;;;;;;5037460;28;19921;-79
2022/06/04 05:33:19;;;;;;;;;;;11.30;99.90;;;;;;5037579;28;19920;-77
2022/06/04 05:35:45;;;;;;;;;;;11.30;99.90;;;;;;5037270;28;19971;-78
2022/06/04 05:38:10;;;;;;;;;;;11.40;99.90;;;;;;5037074;28;20026;-79
2022/06/04 05:40:36;;;;;;;;;;;11.40;99.90;;;;;;5037221;28;19921;-79
2022/06/04 05:43:01;;;;;;;;;;;11.40;99.90;;;;;;5037171;28;19929;-79
2022/06/04 05:45:27;;;;;;;;;;;11.50;99.90;;;;;;5037319;28;19927;-76
2022/06/04 05:47:53;;;;;;;;;;;11.50;99.90;;;;;;5019849;28;20015;-77
2022/06/04 05:50:18;;;;;;;;;;;11.60;99.90;;;;;;5036099;28;19971;-78
2022/06/04 05:52:44;;;;;;;;;;;11.60;99.90;;;;;;5037069;28;19921;-78
2022/06/04 05:55:09;;;;;;;;;;;11.70;99.90;;;;;;5036646;28;20003;-79
2022/06/04 05:57:35;;;;;;;;;;;11.70;99.90;;;;;;5037060;28;19920;-79
2022/06/04 06:00:01;;;;;;;;;;;11.70;99.90;;;;;;5037677;28;20293;-80
2022/06/04 06:02:26;;;;;;;;;;;11.80;99.90;;;;;;5037187;28;20013;-78
2022/06/04 06:04:52;;;;;;;;;;;11.80;99.90;;;;;;5022846;28;19932;-78
2022/06/04 06:07:17;;;;;;;;;;;11.90;99.90;;;;;;5061349;28;19905;-85
2022/06/04 06:09:43;;;;;;;;;;;12.00;99.90;;;;;;5043596;28;19905;-80
2022/06/04 06:12:08;;;;;;;;;;;12.00;99.90;;;;;;5060981;28;19928;-81
2022/06/04 06:14:34;;;;;;;;;;;12.00;99.90;;;;;;5042675;28;19932;-77
2022/06/04 06:16:59;;;;;;;;;;;12.00;99.90;;;;;;5060789;28;19904;-77
2022/06/04 06:19:25;;;;;;;;;;;12.10;99.90;;;;;;5043344;28;19923;-77
2022/06/04 06:21:51;;;;;;;;;;;12.10;99.90;;;;;;5059314;28;19921;-77
2022/06/04 06:24:16;;;;;;;;;;;12.10;99.90;;;;;;5040208;28;19928;-82
2022/06/04 06:26:46;;;;;;;;;;;12.20;99.90;;;;;;5037157;28;19925;-77
2022/06/04 06:29:11;;;;;;;;;;;12.20;99.90;;;;;;5019242;28;19921;-76
2022/06/04 06:31:37;;;;;;;;;;;12.20;99.90;;;;;;5036336;28;19975;-76
2022/06/04 06:34:03;;;;;;;;;;;12.20;99.90;;;;;;5035120;28;19968;-77
2022/06/04 06:36:28;;;;;;;;;;;12.30;99.90;;;;;;5036459;28;20254;-76
2022/06/04 06:38:54;;;;;;;;;;;12.30;99.90;;;;;;5037986;28;20276;-76
2022/06/04 06:41:20;;;;;;;;;;;12.40;99.90;;;;;;5036259;28;19928;-79
2022/06/04 06:43:50;;;;;;;;;;;12.40;99.90;;;;;;5036209;28;19921;-75
2022/06/04 06:46:17;;;;;;;;;;;12.60;99.90;;;;;;5036972;28;19921;-76
2022/06/04 06:48:42;;;;;;;;;;;12.70;99.90;;;;;;5018525;28;20321;-76
2022/06/04 06:51:27;;;;;;;;;;;12.80;99.90;;;;;;5035896;28;19971;-76
2022/06/04 06:53:56;;;;;;;;;;;13.00;99.90;;;;;;5003004;28;19920;-76
2022/06/04 06:56:23;;;;;;;;;;;13.10;99.90;;;;;;5035840;28;20456;-79
2022/06/04 06:58:48;;;;;;;;;;;13.20;99.90;;;;;;5034811;28;19921;-76
2022/06/04 07:01:14;;;;;;;;;;;13.30;99.90;;;;;;5034487;28;20338;-76
2022/06/04 07:03:39;;;;;;;;;;;13.30;99.90;;;;;;5018868;28;20368;-78
2022/06/04 07:06:07;;;;;;;;;;;13.40;99.90;;;;;;5035798;28;19921;-75
2022/06/04 07:08:33;;;;;;;;;;;13.40;99.90;;;;;;5034290;28;19947;-76
2022/06/04 07:10:58;;;;;;;;;;;13.50;99.90;;;;;;5035638;28;19927;-76
2022/06/04 07:13:24;;;;;;;;;;;13.50;99.90;;;;;;5018059;28;20012;-77
2022/06/04 07:15:50;;;;;;;;;;;13.50;99.90;;;;;;5018325;28;19927;-75
2022/06/04 07:18:15;;;;;;;;;;;13.60;99.90;;;;;;5036782;28;19959;-75
2022/06/04 07:20:42;;;;;;;;;;;13.70;99.90;;;;;;5037397;28;19921;-75
2022/06/04 07:23:08;;;;;;;;;;;13.80;99.90;;;;;;5037842;28;19921;-75
2022/06/04 07:25:33;;;;;;;;;;;13.90;99.90;;;;;;5036999;28;19944;-75
2022/06/04 07:27:59;;;;;;;;;;;14.00;99.90;;;;;;5037161;28;19921;-74
2022/06/04 07:30:25;;;;;;;;;;;14.20;99.90;;;;;;5036762;28;20305;-75
2022/06/04 07:32:51;;;;;;;;;;;14.30;99.70;;;;;;5037082;28;19921;-75
2022/06/04 07:35:17;;;;;;;;;;;14.40;99.90;;;;;;5037441;28;19921;-75
2022/06/04 07:37:42;;;;;;;;;;;14.60;99.60;;;;;;5036356;28;19925;-75
2022/06/04 07:40:08;;;;;;;;;;;14.70;99.10;;;;;;5035527;28;19921;-75
2022/06/04 07:42:33;;;;;;;;;;;14.80;99.30;;;;;;5035662;28;19921;-75
2022/06/04 07:44:59;;;;;;;;;;;14.90;99.00;;;;;;5035596;28;19921;-75
2022/06/04 07:47:25;;;;;;;;;;;15.00;98.40;;;;;;5018234;28;20015;-75
2022/06/04 07:49:50;;;;;;;;;;;15.10;98.40;;;;;;5035874;28;20312;-74
2022/06/04 07:52:16;;;;;;;;;;;15.20;99.20;;;;;;5001889;28;19921;-75
2022/06/04 07:54:41;;;;;;;;;;;15.30;99.60;;;;;;5037949;28;19928;-76
2022/06/04 07:57:07;;;;;;;;;;;15.40;99.40;;;;;;5050786;28;19921;-75
2022/06/04 07:59:32;;;;;;;;;;;15.50;97.50;;;;;;5055339;28;19921;-78
2022/06/04 08:01:58;;;;;;;;;;;15.60;97.90;;;;;;5048393;28;19920;-75
2022/06/04 08:04:23;;;;;;;;;;;15.60;97.10;;;;;;5056894;28;19912;-76
2022/06/04 08:06:49;;;;;;;;;;;15.60;97.60;;;;;;5042178;28;19905;-77
2022/06/04 08:09:14;;;;;;;;;;;15.60;97.30;;;;;;5059105;28;19905;-76
2022/06/04 08:11:40;;;;;;;;;;;15.60;97.30;;;;;;5057232;28;19944;-73
2022/06/04 08:14:11;;;;;;;;;;;15.50;97.50;;;;;;5036729;28;19921;-76
2022/06/04 08:16:37;;;;;;;;;;;15.50;97.30;;;;;;5017921;28;20015;-76
2022/06/04 08:19:03;;;;;;;;;;;15.50;97.70;;;;;;5034828;28;19921;-76
2022/06/04 08:21:28;;;;;;;;;;;15.50;97.60;;;;;;5018042;28;19929;-76
2022/06/04 08:23:54;;;;;;;;;;;15.50;97.50;;;;;;5036029;28;19928;-76
2022/06/04 08:26:19;;;;;;;;;;;15.50;97.50;;;;;;5035937;28;20329;-76
2022/06/04 08:28:45;;;;;;;;;;;15.50;97.20;;;;;;5017533;28;20008;-75
2022/06/04 08:31:11;;;;;;;;;;;15.50;97.40;;;;;;5034879;28;19928;-76
2022/06/04 08:33:37;;;;;;;;;;;15.50;97.80;;;;;;5017113;28;20404;-76
2022/06/04 08:36:03;;;;;;;;;;;15.60;97.60;;;;;;5034955;28;19921;-77
2022/06/04 08:38:29;;;;;;;;;;;15.60;97.20;;;;;;5032594;28;19921;-76
2022/06/04 08:40:56;;;;;;;;;;;15.70;97.30;;;;;;5034233;28;19928;-76
2022/06/04 08:43:31;;;;;;;;;;;15.90;96.70;;;;;;5016908;28;19940;-76
2022/06/04 08:45:57;;;;;;;;;;;16.00;96.70;;;;;;5018159;28;19999;-76
2022/06/04 08:48:27;;;;;;;;;;;16.10;95.60;;;;;;5017223;28;19921;-76
2022/06/04 08:50:54;;;;;;;;;;;16.20;95.30;;;;;;5034156;28;19921;-76
2022/06/04 08:53:20;;;;;;;;;;;16.30;94.80;;;;;;5016616;28;19944;-76
2022/06/04 08:58:52;;;;;;;;;;;16.40;94.90;;;;;;5033858;28;19951;-76
2022/06/04 09:01:22;;;;;;;;;;;16.50;95.80;;;;;;5034471;28;19928;-81
2022/06/04 09:03:52;;;;;;;;;;;16.70;95.20;;;;;;5032655;28;19920;-75
2022/06/04 09:06:27;;;;;;;;;;;16.70;94.90;;;;;;5034672;28;20375;-76
2022/06/04 09:09:04;;;;;;;;;;;16.80;94.80;;;;;;5034532;28;20277;-76
2022/06/04 09:11:37;;;;;;;;;;;16.80;93.00;;;;;;5033927;28;19928;-76
2022/06/04 09:14:09;;;;;;;;;;;16.90;93.10;;;;;;5033723;28;20305;-75
2022/06/04 09:16:36;;;;;;;;;;;16.90;93.60;;;;;;5032929;28;19921;-75
2022/06/04 09:19:02;;;;;;;;;;;16.90;93.30;;;;;;5033746;28;19921;-76
2022/06/04 09:21:35;;;;;;;;;;;16.90;92.70;;;;;;5032886;28;19921;-75
2022/06/04 09:24:01;;;;;;;;;;;16.90;93.10;;;;;;5016880;28;20017;-75
2022/06/04 09:26:32;;;;;;;;;;;16.90;93.90;;;;;;5033698;28;20391;-76
2022/06/04 09:29:02;;;;;;;;;;;17.00;93.90;;;;;;5033658;28;19928;-75
2022/06/04 09:31:34;;;;;;;;;;;17.00;93.20;;;;;;5033698;28;20272;-75
2022/06/04 09:34:10;;;;;;;;;;;17.10;92.80;;;;;;5033624;28;19927;-75
2022/06/04 09:36:36;;;;;;;;;;;17.10;93.70;;;;;;5034004;28;19921;-76
2022/06/04 09:39:03;;;;;;;;;;;17.20;94.00;;;;;;5033733;28;19925;-75
2022/06/04 09:41:29;;;;;;;;;;;17.20;94.20;;;;;;5033646;28;19975;-75
2022/06/04 09:43:59;;;;;;;;;;;17.30;92.80;;;;;;5033778;28;19972;-75
2022/06/04 09:46:24;;;;;;;;;;;17.30;93.40;;;;;;5033286;28;19944;-75
2022/06/04 09:48:50;;;;;;;;;;;17.30;92.80;;;;;;5036246;28;19921;-76
2022/06/04 09:51:17;;;;;;;;;;;17.40;93.70;;;;;;5054703;28;19920;-75
2022/06/04 09:53:44;;;;;;;;;;;17.40;91.50;;;;;;5053686;28;19925;-75
2022/06/04 09:56:11;;;;;;;;;;;17.40;92.30;;;;;;5047645;28;20372;-75
2022/06/04 09:58:37;;;;;;;;;;;17.40;92.10;;;;;;5039346;28;19913;-80
2022/06/04 10:01:04;;;;;;;;;;;17.40;91.70;;;;;;5060876;28;19924;-79
2022/06/04 10:03:30;;;;;;;;;;;17.40;91.50;;;;;;5061246;28;19905;-71
2022/06/04 10:05:58;;;;;;;;;;;17.40;92.50;;;;;;5058286;28;19921;-79
2022/06/04 10:08:24;;;;;;;;;;;17.50;92.20;;;;;;5037248;28;19921;-80
2022/06/04 10:10:57;;;;;;;;;;;17.50;92.00;;;;;;5019375;28;20284;-80
2022/06/04 10:13:42;;;;;;;;;;;17.50;92.60;;;;;;5037708;28;19925;-75
2022/06/04 10:16:17;;;;;;;;;;;17.50;92.20;;;;;;5036148;28;20316;-75
2022/06/04 10:18:52;;;;;;;;;;;17.60;92.60;;;;;;5036334;28;19920;-75
2022/06/04 10:21:22;;;;;;;;;;;17.60;92.80;;;;;;5036703;28;19975;-75
2022/06/04 10:23:48;;;;;;;;;;;17.60;92.10;;;;;;5035327;28;19921;-75
2022/06/04 10:26:20;;;;;;;;;;;17.60;91.70;;;;;;5036903;28;19921;-75
2022/06/04 10:28:52;;;;;;;;;;;17.60;91.60;;;;;;5036777;28;19927;-75
2022/06/04 10:31:24;;;;;;;;;;;17.60;91.20;;;;;;5036571;28;19968;-76
2022/06/04 10:34:07;;;;;;;;;;;17.70;90.80;;;;;;5035169;28;19921;-76
2022/06/04 10:36:54;;;;;;;;;;;17.70;91.10;;;;;;5035227;28;19922;-76
2022/06/04 10:39:19;;;;;;;;;;;17.70;91.70;;;;;;5034877;28;20408;-76
2022/06/04 10:41:49;;;;;;;;;;;17.70;90.40;;;;;;5036084;28;19973;-75
2022/06/04 10:44:19;;;;;;;;;;;17.80;91.30;;;;;;5034955;28;19971;-76
2022/06/04 10:47:03;;;;;;;;;;;17.80;91.00;;;;;;5035464;28;20274;-74
2022/06/04 10:49:36;;;;;;;;;;;17.80;91.50;;;;;;5035751;28;20365;-75
2022/06/04 10:52:23;;;;;;;;;;;17.90;92.00;;;;;;5035607;28;19921;-76
2022/06/04 10:55:11;;;;;;;;;;;17.90;89.50;;;;;;5035883;28;19928;-76
2022/06/04 10:57:44;;;;;;;;;;;17.90;90.60;;;;;;5034515;28;19921;-76
2022/06/04 11:00:16;;;;;;;;;;;17.90;89.80;;;;;;5034346;28;19968;-75
2022/06/04 11:02:48;;;;;;;;;;;18.00;89.00;;;;;;5034630;28;19932;-76
2022/06/04 11:05:19;;;;;;;;;;;18.00;89.40;;;;;;5035659;28;19921;-75
2022/06/04 11:07:49;;;;;;;;;;;18.00;90.60;;;;;;5035599;28;19975;-76
2022/06/04 11:10:17;;;;;;;;;;;18.10;90.30;;;;;;5035536;28;20332;-76
2022/06/04 11:12:48;;;;;;;;;;;18.10;88.60;;;;;;5034843;28;19921;-76
2022/06/04 11:15:34;;;;;;;;;;;18.10;87.70;;;;;;5034152;28;19921;-76
2022/06/04 11:18:00;;;;;;;;;;;18.10;89.80;;;;;;5035411;28;19925;-78
2022/06/04 11:20:26;;;;;;;;;;;18.10;89.20;;;;;;5035899;28;20024;-76
2022/06/04 11:22:52;;;;;;;;;;;18.10;89.00;;;;;;5033993;28;19928;-76
2022/06/04 11:25:27;;;;;;;;;;;18.00;89.50;;;;;;5035012;28;20019;-76
2022/06/04 11:27:58;;;;;;;;;;;18.10;90.30;;;;;;5017802;28;19921;-76
2022/06/04 11:30:33;;;;;;;;;;;18.10;90.30;;;;;;5033921;28;19921;-76
2022/06/04 11:33:21;;;;;;;;;;;18.20;85.10;;;;;;5034991;28;19921;-76
2022/06/04 11:36:17;;;;;;;;;;;18.20;88.10;;;;;;5006524;28;19975;-76
2022/06/04 11:39:01;;;;;;;;;;;18.20;89.60;;;;;;5022027;28;19925;-76
2022/06/04 11:41:42;;;;;;;;;;;18.30;90.80;;;;;;5033853;28;19928;-76
2022/06/04 11:44:12;;;;;;;;;;;18.30;90.30;;;;;;5017108;28;19928;-76
2022/06/04 11:46:38;;;;;;;;;;;18.30;87.20;;;;;;5035297;28;19928;-76
2022/06/04 11:49:11;;;;;;;;;;;18.30;87.80;;;;;;5034467;28;20335;-76
2022/06/04 11:51:40;;;;;;;;;;;18.30;88.30;;;;;;5033645;28;19921;-75
2022/06/04 11:54:06;;;;;;;;;;;18.30;87.30;;;;;;5017353;28;20377;-76
2022/06/04 11:56:46;;;;;;;;;;;18.30;88.30;;;;;;5035412;28;20008;-75
2022/06/04 11:59:21;;;;;;;;;;;18.30;86.90;;;;;;5035976;28;19932;-76
2022/06/04 12:01:47;;;;;;;;;;;18.30;89.20;;;;;;5035192;28;19929;-75
2022/06/04 12:04:21;;;;;;;;;;;18.30;89.70;;;;;;5034782;28;19979;-74
2022/06/04 12:06:51;;;;;;;;;;;18.40;88.20;;;;;;5053323;28;19921;-75
2022/06/04 12:09:20;;;;;;;;;;;18.40;88.00;;;;;;5057534;28;19951;-70
2022/06/04 12:11:49;;;;;;;;;;;18.50;88.70;;;;;;5056319;28;19928;-70
2022/06/04 12:14:33;;;;;;;;;;;18.50;90.20;;;;;;5040714;28;19928;-73
2022/06/04 12:16:58;;;;;;;;;;;18.60;90.20;;;;;;5057048;28;19921;-74
2022/06/04 12:25:04;;;;;;;;;;;18.60;88.60;;;;;;5034557;28;19921;-76
2022/06/04 12:27:30;;;;;;;;;;;18.60;86.20;;;;;;5033795;28;19960;-76
2022/06/04 12:29:56;;;;;;;;;;;18.60;88.90;;;;;;5034191;28;19921;-76
2022/06/04 12:32:25;;;;;;;;;;;18.60;88.60;;;;;;5034375;28;19925;-76
2022/06/04 12:34:51;;;;;;;;;;;18.60;90.10;;;;;;5034651;28;19921;-76
2022/06/04 12:37:30;;;;;;;;;;;18.70;90.20;;;;;;5033084;28;19920;-76
2022/06/04 12:39:56;;;;;;;;;;;18.70;90.00;;;;;;5032928;28;19921;-76
2022/06/04 12:42:25;;;;;;;;;;;18.70;90.00;;;;;;5033655;28;19925;-76
2022/06/04 12:44:57;;;;;;;;;;;18.80;89.30;;;;;;5032989;28;19921;-76
2022/06/04 12:47:26;;;;;;;;;;;18.80;89.50;;;;;;5017535;28;20396;-76
2022/06/04 12:49:52;;;;;;;;;;;18.80;88.40;;;;;;5033092;28;19925;-75
2022/06/04 12:52:36;;;;;;;;;;;18.80;88.20;;;;;;5033895;28;19921;-76
2022/06/04 12:55:11;;;;;;;;;;;18.70;86.70;;;;;;5034563;28;20373;-76
2022/06/04 12:57:40;;;;;;;;;;;18.70;86.10;;;;;;5033975;28;19920;-77
2022/06/04 13:00:11;;;;;;;;;;;18.70;88.70;;;;;;5033923;28;19975;-76
2022/06/04 13:02:39;;;;;;;;;;;18.70;90.20;;;;;;5034067;28;19921;-76
2022/06/04 13:05:11;;;;;;;;;;;18.80;90.10;;;;;;5032668;28;19975;-76
2022/06/04 13:07:41;;;;;;;;;;;18.80;88.90;;;;;;5033882;28;19921;-77
2022/06/04 13:10:13;;;;;;;;;;;18.80;90.00;;;;;;5032636;28;19921;-76
2022/06/04 13:12:42;;;;;;;;;;;18.90;89.10;;;;;;5032894;28;19921;-76
2022/06/04 13:15:13;;;;;;;;;;;18.90;89.50;;;;;;5033818;28;19928;-76
2022/06/04 13:17:43;;;;;;;;;;;19.10;90.10;;;;;;5034733;28;19921;-76
2022/06/04 13:20:28;;;;;;;;;;;19.20;88.50;;;;;;5033874;28;19967;-76
2022/06/04 13:23:01;;;;;;;;;;;19.30;86.50;;;;;;5034560;28;19928;-76
2022/06/04 13:25:30;;;;;;;;;;;19.40;85.80;;;;;;5035987;28;19990;-76
2022/06/04 13:27:55;;;;;;;;;;;19.40;84.80;;;;;;5037443;28;19921;-76
2022/06/04 13:30:22;;;;;;;;;;;19.50;85.80;;;;;;5036227;28;20048;-76
2022/06/04 13:32:48;;;;;;;;;;;19.40;85.30;;;;;;5037521;28;20257;-75
2022/06/04 13:35:16;;;;;;;;;;;19.40;84.00;;;;;;5036205;28;19928;-75
2022/06/04 13:37:42;;;;;;;;;;;19.30;86.40;;;;;;5036150;28;19925;-75
2022/06/04 13:40:12;;;;;;;;;;;19.30;83.00;;;;;;5036056;28;19921;-76
2022/06/04 13:42:39;;;;;;;;;;;19.30;84.70;;;;;;5036394;28;20250;-76
2022/06/04 13:45:17;;;;;;;;;;;19.30;86.80;;;;;;5037489;28;20254;-76
2022/06/04 13:47:50;;;;;;;;;;;19.30;88.30;;;;;;5036687;28;20327;-76
2022/06/04 13:50:16;;;;;;;;;;;19.40;87.00;;;;;;5037044;28;19925;-75
2022/06/04 13:52:47;;;;;;;;;;;19.40;86.00;;;;;;5037746;28;19989;-76
2022/06/04 13:55:30;;;;;;;;;;;19.30;87.50;;;;;;5019945;28;19971;-75
2022/06/04 13:57:57;;;;;;;;;;;19.20;86.50;;;;;;5019842;28;20284;-75
2022/06/04 14:00:24;;;;;;;;;;;19.10;85.10;;;;;;5037244;28;20016;-77
2022/06/04 14:02:50;;;;;;;;;;;19.00;87.70;;;;;;5019689;28;20276;-75
2022/06/04 14:08:04;;;;;;;;;;;18.90;86.80;;;;;;5036507;28;19967;-76
2022/06/04 14:10:30;;;;;;;;;;;18.80;88.70;;;;;;5036960;28;19925;-76
2022/06/04 14:12:55;;;;;;;;;;;18.70;88.80;;;;;;5035266;28;19983;-75
2022/06/04 14:15:27;;;;;;;;;;;18.70;90.00;;;;;;5036722;28;19925;-76
2022/06/04 14:18:11;;;;;;;;;;;18.70;90.20;;;;;;5035605;28;20069;-75
2022/06/04 14:20:40;;;;;;;;;;;18.70;90.70;;;;;;5035802;28;20428;-76
2022/06/04 14:23:11;;;;;;;;;;;18.70;90.70;;;;;;5036873;28;19921;-76
2022/06/04 14:25:55;;;;;;;;;;;18.60;90.30;;;;;;5035978;28;20352;-76
2022/06/04 14:28:25;;;;;;;;;;;18.50;89.80;;;;;;5036425;28;19921;-75
2022/06/04 14:30:57;;;;;;;;;;;18.40;90.40;;;;;;5035058;28;20380;-75
2022/06/04 14:33:23;;;;;;;;;;;18.40;90.70;;;;;;5048820;28;19952;-76
2022/06/04 14:35:55;;;;;;;;;;;18.40;91.10;;;;;;5055989;28;19921;-76
2022/06/04 14:38:21;;;;;;;;;;;18.50;91.00;;;;;;5056676;28;19935;-75
2022/06/04 14:40:58;;;;;;;;;;;18.50;90.80;;;;;;5053035;28;19921;-75
2022/06/04 14:43:39;;;;;;;;;;;18.60;90.70;;;;;;5050400;28;19921;-75
2022/06/04 14:46:09;;;;;;;;;;;18.60;89.50;;;;;;5060336;28;19927;-77